createdAt,value
2023-02-16T07:59:00.543Z,99795.50
2023-02-16T08:01:32.118Z,99791.06
2023-02-16T08:03:59.498Z,99786.94
2023-02-16T08:06:27.083Z,99801.44
2023-02-16T08:08:54.346Z,99782.59
2023-02-16T08:11:25.326Z,99794.06
2023-02-16T08:13:53.116Z,99789.75
2023-02-16T08:16:28.902Z,99796.03
2023-02-16T08:19:00.213Z,99802.22
2023-02-16T08:21:34.483Z,99803.56
2023-02-16T08:24:13.174Z,99807.16
2023-02-16T08:26:44.706Z,99798.41
2023-02-16T08:29:14.916Z,99798.56
2023-02-16T08:31:42.635Z,99800.22
2023-02-16T08:34:10.711Z,99789.53
2023-02-16T08:36:40.182Z,99790.59
2023-02-16T08:39:19.007Z,99787.75
2023-02-16T08:41:49.877Z,99784.31
2023-02-16T08:44:20.345Z,99793.19
2023-02-16T08:46:49.516Z,99788.72
2023-02-16T08:49:21.924Z,99796.06
2023-02-16T08:51:56.905Z,99790.03
2023-02-16T08:54:30.487Z,99797.81
2023-02-16T08:57:00.015Z,99781.91
2023-02-16T08:59:28.838Z,99792.56
2023-02-16T09:01:59.125Z,99789.53
2023-02-16T09:04:29.270Z,99795.97
2023-02-16T09:06:58.563Z,99787.69
2023-02-16T09:09:27.402Z,99796.13
2023-02-16T09:11:55.185Z,99786.63
2023-02-16T09:14:23.114Z,99784.47
2023-02-16T09:16:50.605Z,99778.06
2023-02-16T09:19:21.757Z,99783.16
2023-02-16T09:21:50.964Z,99781.41
2023-02-16T09:24:19.102Z,99786.50
2023-02-16T09:26:46.594Z,99791.75
2023-02-16T09:29:14.834Z,99791.84
2023-02-16T09:31:44.267Z,99788.13
2023-02-16T09:34:22.607Z,99805.94
2023-02-16T09:36:51.016Z,99807.84
2023-02-16T09:39:19.150Z,99817.13
2023-02-16T09:42:54.088Z,99812.38
2023-02-16T09:45:22.849Z,99811.91
2023-02-16T09:47:52.148Z,99807.41
2023-02-16T09:50:53.824Z,99805.50
2023-02-16T09:53:34.853Z,99803.94
2023-02-16T09:56:37.806Z,99806.91
2023-02-16T10:00:08.498Z,99792.88
2023-02-16T10:03:12.207Z,99789.00
2023-02-16T10:06:34.377Z,99782.50
2023-02-16T10:09:16.479Z,99786.06
2023-02-16T10:12:02.262Z,99778.84
2023-02-16T10:14:51.225Z,99794.34
2023-02-16T10:17:38.433Z,99800.91
2023-02-16T10:20:35.973Z,99792.78
2023-02-16T10:23:50.387Z,99797.78
2023-02-16T10:26:44.173Z,99797.81
2023-02-16T10:29:20.697Z,99798.09
2023-02-16T10:32:20.807Z,99798.63
2023-02-16T10:35:10.905Z,99784.19
2023-02-16T10:37:54.697Z,99784.38
2023-02-16T10:41:27.992Z,99781.69
2023-02-16T10:44:43.836Z,99784.47
2023-02-16T10:47:45.907Z,99775.50
2023-02-16T10:50:52.133Z,99776.88
2023-02-16T10:53:39.186Z,99784.69
2023-02-16T10:57:01.040Z,99771.34
2023-02-16T10:59:44.553Z,99777.97
2023-02-16T11:02:23.686Z,99778.22
2023-02-16T11:04:55.940Z,99767.47
2023-02-16T11:07:31.313Z,99756.09
2023-02-16T11:10:18.181Z,99763.25
2023-02-16T11:12:45.519Z,99763.13
2023-02-16T11:15:18.942Z,99754.66
2023-02-16T11:18:08.674Z,99747.25
2023-02-16T11:20:42.226Z,99753.47
2023-02-16T11:23:31.808Z,99730.91
2023-02-16T11:26:10.525Z,99735.50
2023-02-16T11:28:46.647Z,99711.81
2023-02-16T11:31:40.297Z,99725.13
2023-02-16T11:34:51.175Z,99723.22
2023-02-16T11:37:34.104Z,99724.44
2023-02-16T11:40:31.012Z,99714.50
2023-02-16T11:43:02.035Z,99708.19
2023-02-16T11:45:36.806Z,99701.06
2023-02-16T11:48:24.765Z,99701.47
2023-02-16T11:51:10.667Z,99704.28
2023-02-16T11:53:42.624Z,99698.81
2023-02-16T11:56:33.023Z,99694.00
2023-02-16T11:59:21.177Z,99697.00
2023-02-16T12:02:49.035Z,99683.53
2023-02-16T12:06:22.203Z,99701.53
2023-02-16T12:09:14.144Z,99686.47
2023-02-16T12:12:14.723Z,99692.97
2023-02-16T12:15:24.889Z,99676.47
2023-02-16T12:18:58.416Z,99670.16
2023-02-16T12:21:42.389Z,99674.19
2023-02-16T12:24:41.277Z,99662.78
2023-02-16T12:27:43.174Z,99663.81
2023-02-16T12:31:27.516Z,99655.25
2023-02-16T12:34:37.714Z,99656.84
2023-02-16T12:37:17.352Z,99658.28
2023-02-16T12:40:15.161Z,99637.94
2023-02-16T12:43:04.102Z,99643.38
2023-02-16T12:45:42.289Z,99637.63
2023-02-16T12:48:57.451Z,99628.25
2023-02-16T12:51:38.251Z,99617.66
2023-02-16T12:54:22.419Z,99631.81
2023-02-16T12:57:15.858Z,99630.88
2023-02-16T13:00:15.038Z,99624.50
2023-02-16T13:03:15.500Z,99615.66
2023-02-16T13:05:45.978Z,99612.75
2023-02-16T13:09:13.905Z,99605.19
2023-02-16T13:12:39.351Z,99611.56
2023-02-16T13:15:37.181Z,99607.31
2023-02-16T13:18:48.960Z,99604.25
2023-02-16T13:22:18.325Z,99599.09
2023-02-16T13:25:09.924Z,99596.44
2023-02-16T13:28:52.657Z,99597.13
2023-02-16T13:32:08.910Z,99594.53
2023-02-16T13:36:19.588Z,99590.28
2023-02-16T13:39:48.843Z,99585.16
2023-02-16T13:42:45.155Z,99591.84
2023-02-16T13:45:37.084Z,99583.13
2023-02-16T13:48:46.380Z,99578.53
2023-02-16T13:51:23.696Z,99582.19
2023-02-16T13:54:03.908Z,99571.78
2023-02-16T13:56:30.990Z,99566.34
2023-02-16T13:59:18.580Z,99572.91
2023-02-16T14:01:49.332Z,99573.47
2023-02-16T14:04:22.547Z,99571.56
2023-02-16T14:07:32.142Z,99580.09
2023-02-16T14:09:59.543Z,99573.34
2023-02-16T14:12:33.829Z,99570.88
2023-02-16T14:15:19.311Z,99573.06
2023-02-16T14:17:47.304Z,99568.94
2023-02-16T14:20:15.768Z,99564.81
2023-02-16T14:22:50.818Z,99558.97
2023-02-16T14:25:23.975Z,99555.41
2023-02-16T14:27:58.578Z,99549.69
2023-02-16T14:30:42.531Z,99550.09
2023-02-16T14:33:12.732Z,99553.47
2023-02-16T14:36:14.281Z,99552.47
2023-02-16T14:38:41.461Z,99547.28
2023-02-16T14:41:36.811Z,99549.94
2023-02-16T14:44:06.926Z,99546.94
2023-02-16T14:47:52.819Z,99552.78
2023-02-16T14:51:19.463Z,99546.13
2023-02-16T14:54:48.517Z,99539.84
2023-02-16T14:57:41.304Z,99547.97
2023-02-16T15:01:08.648Z,99541.88
2023-02-16T15:03:52.747Z,99542.53
2023-02-16T15:06:43.061Z,99554.06
2023-02-16T15:09:24.618Z,99547.81
2023-02-16T15:12:22.878Z,99550.78
2023-02-16T15:15:04.681Z,99557.03
2023-02-16T15:17:47.163Z,99543.75
2023-02-16T15:20:34.915Z,99550.28
2023-02-16T15:23:17.653Z,99552.59
2023-02-16T15:26:19.941Z,99556.84
2023-02-16T15:29:18.657Z,99540.00
2023-02-16T15:31:46.686Z,99542.94
2023-02-16T15:34:36.185Z,99555.13
2023-02-16T15:37:32.874Z,99551.66
2023-02-16T15:40:29.789Z,99550.25
2023-02-16T15:43:37.512Z,99542.81
2023-02-16T15:46:33.090Z,99537.75
2023-02-16T15:49:22.289Z,99538.28
2023-02-16T15:51:49.933Z,99530.50
2023-02-16T15:54:35.642Z,99536.56
2023-02-16T15:57:30.885Z,99526.31
2023-02-16T16:00:20.869Z,99520.84
2023-02-16T16:02:58.354Z,99527.31
2023-02-16T16:05:33.103Z,99520.03
2023-02-16T16:08:01.716Z,99527.63
2023-02-16T16:10:36.881Z,99532.81
2023-02-16T16:13:28.726Z,99530.56
2023-02-16T16:16:02.140Z,99529.25
2023-02-16T16:18:51.068Z,99528.53
2023-02-16T16:21:34.182Z,99523.72
2023-02-16T16:24:11.743Z,99542.84
2023-02-16T16:26:57.829Z,99534.97
2023-02-16T16:29:46.789Z,99534.81
2023-02-16T16:32:30.179Z,99534.22
2023-02-16T16:34:57.805Z,99541.44
2023-02-16T16:37:35.853Z,99538.25
2023-02-16T16:40:27.693Z,99532.97
2023-02-16T16:43:18.350Z,99536.00
2023-02-16T16:45:54.054Z,99533.81
2023-02-16T16:48:37.193Z,99520.84
2023-02-16T16:51:38.235Z,99535.75
2023-02-16T16:54:39.845Z,99526.69
2023-02-16T16:57:18.482Z,99532.53
2023-02-16T16:59:45.776Z,99525.78
2023-02-16T17:02:13.189Z,99540.25
2023-02-16T17:04:40.464Z,99539.44
2023-02-16T17:07:07.919Z,99540.56
2023-02-16T17:09:35.265Z,99543.91
2023-02-16T17:12:03.392Z,99551.56
2023-02-16T17:14:30.722Z,99554.00
2023-02-16T17:16:58.451Z,99550.28
2023-02-16T17:19:29.354Z,99548.13
2023-02-16T17:21:56.763Z,99545.44
2023-02-16T17:24:24.159Z,99544.69
2023-02-16T17:26:51.514Z,99549.75
2023-02-16T17:29:18.899Z,99554.97
2023-02-16T17:31:46.287Z,99544.16
2023-02-16T17:34:13.697Z,99552.72
2023-02-16T17:36:41.168Z,99562.44
2023-02-16T17:39:08.501Z,99561.84
2023-02-16T17:41:35.788Z,99562.81
2023-02-16T17:44:04.186Z,99564.72
2023-02-16T17:46:32.588Z,99569.38
2023-02-16T17:48:59.898Z,99568.16
2023-02-16T17:51:27.374Z,99571.50
2023-02-16T17:53:54.775Z,99566.06
2023-02-16T17:56:24.692Z,99563.41
2023-02-16T17:58:52.323Z,99560.59
2023-02-16T18:01:21.345Z,99568.41
2023-02-16T18:03:48.990Z,99569.88
2023-02-16T18:06:25.047Z,99569.03
2023-02-16T18:08:53.377Z,99564.69
2023-02-16T18:11:20.679Z,99567.00
2023-02-16T18:13:48.337Z,99555.00
2023-02-16T18:16:21.757Z,99567.44
2023-02-16T18:18:49.154Z,99568.78
2023-02-16T18:21:16.532Z,99570.50
2023-02-16T18:23:43.891Z,99574.50
2023-02-16T18:26:16.517Z,99588.56
2023-02-16T18:28:44.723Z,99580.88
2023-02-16T18:31:13.061Z,99583.06
2023-02-16T18:33:40.562Z,99577.81
2023-02-16T18:36:08.987Z,99578.69
2023-02-16T18:38:36.542Z,99586.81
2023-02-16T18:41:04.735Z,99579.88
2023-02-16T18:43:32.108Z,99579.31
2023-02-16T18:45:59.587Z,99595.75
2023-02-16T18:48:26.935Z,99591.22
2023-02-16T18:50:54.241Z,99599.16
2023-02-16T18:53:21.546Z,99605.31
2023-02-16T18:55:48.873Z,99593.38
2023-02-16T18:58:16.393Z,99607.19
2023-02-16T19:00:44.099Z,99595.94
2023-02-16T19:03:11.577Z,99596.41
2023-02-16T19:05:38.883Z,99600.25
2023-02-16T19:08:06.707Z,99599.69
2023-02-16T19:10:34.255Z,99593.63
2023-02-16T19:13:02.243Z,99606.81
2023-02-16T19:15:30.087Z,99603.50
2023-02-16T19:17:57.786Z,99603.88
2023-02-16T19:20:25.620Z,99613.31
2023-02-16T19:22:53.166Z,99609.31
2023-02-16T19:25:21.274Z,99617.63
2023-02-16T19:27:48.822Z,99624.00
2023-02-16T19:30:16.424Z,99625.25
2023-02-16T19:32:43.860Z,99617.84
2023-02-16T19:35:12.431Z,99617.63
2023-02-16T19:37:39.931Z,99630.84
2023-02-16T19:40:11.104Z,99618.69
2023-02-16T19:42:39.894Z,99634.31
2023-02-16T19:45:08.644Z,99635.41
2023-02-16T19:47:35.951Z,99636.31
2023-02-16T19:50:04.067Z,99625.75
2023-02-16T19:52:31.483Z,99641.09
2023-02-16T19:54:58.803Z,99636.50
2023-02-16T19:57:26.165Z,99635.25
2023-02-16T19:59:53.470Z,99634.28
2023-02-16T20:02:20.855Z,99625.53
2023-02-16T20:04:48.215Z,99634.19
2023-02-16T20:07:15.576Z,99636.28
2023-02-16T20:09:42.888Z,99643.88
2023-02-16T20:12:10.261Z,99638.34
2023-02-16T20:14:37.554Z,99648.50
2023-02-16T20:17:05.075Z,99643.44
2023-02-16T20:19:32.390Z,99643.56
2023-02-16T20:21:59.728Z,99635.38
2023-02-16T20:24:27.066Z,99643.22
2023-02-16T20:26:54.471Z,99648.50
2023-02-16T20:29:22.094Z,99637.59
2023-02-16T20:31:57.940Z,99637.25
2023-02-16T20:34:27.579Z,99629.75
2023-02-16T20:36:55.210Z,99635.84
2023-02-16T20:39:23.571Z,99633.31
2023-02-16T20:41:51.010Z,99631.16
2023-02-16T20:44:18.386Z,99631.34
2023-02-16T20:46:45.913Z,99623.63
2023-02-16T20:49:13.589Z,99628.03
2023-02-16T20:51:41.354Z,99624.78
2023-02-16T20:54:09.428Z,99628.03
2023-02-16T20:56:36.744Z,99635.16
2023-02-16T20:59:05.118Z,99627.91
2023-02-16T21:01:46.533Z,99634.94
2023-02-16T21:04:18.861Z,99633.31
2023-02-16T21:06:46.994Z,99630.09
2023-02-16T21:09:15.845Z,99630.78
2023-02-16T21:11:43.949Z,99632.31
2023-02-16T21:14:13.058Z,99633.84
2023-02-16T21:16:41.118Z,99625.56
2023-02-16T21:19:21.006Z,99634.78
2023-02-16T21:21:50.009Z,99629.94
2023-02-16T21:24:17.451Z,99631.91
2023-02-16T21:26:44.922Z,99634.78
2023-02-16T21:29:12.694Z,99636.75
2023-02-16T21:31:40.187Z,99635.56
2023-02-16T21:34:07.549Z,99643.06
2023-02-16T21:36:34.905Z,99639.34
2023-02-16T21:39:02.989Z,99635.06
2023-02-16T21:41:30.686Z,99635.69
2023-02-16T21:44:13.653Z,99642.25
2023-02-16T21:46:47.716Z,99643.31
2023-02-16T21:49:20.190Z,99641.31
2023-02-16T21:51:49.024Z,99628.53
2023-02-16T21:54:42.218Z,99629.44
2023-02-16T21:57:09.529Z,99625.28
2023-02-16T21:59:37.137Z,99624.22
2023-02-16T22:02:04.502Z,99618.91
2023-02-16T22:04:31.811Z,99622.47
2023-02-16T22:06:59.095Z,99608.97
2023-02-16T22:09:26.415Z,99619.38
2023-02-16T22:11:53.775Z,99616.84
2023-02-16T22:14:21.090Z,99617.81
2023-02-16T22:16:50.726Z,99607.97
2023-02-16T22:19:18.903Z,99615.19
2023-02-16T22:21:48.259Z,99613.44
2023-02-16T22:24:18.503Z,99609.06
2023-02-16T22:26:49.234Z,99611.59
2023-02-16T22:29:17.564Z,99607.19
2023-02-16T22:31:50.240Z,99612.34
2023-02-16T22:34:23.986Z,99601.31
2023-02-16T22:36:51.698Z,99604.09
2023-02-16T22:39:20.361Z,99608.44
2023-02-16T22:41:51.289Z,99605.56
2023-02-16T22:44:18.656Z,99604.28
2023-02-16T22:46:45.978Z,99602.63
2023-02-16T22:49:13.284Z,99602.91
2023-02-16T22:51:40.613Z,99607.34
2023-02-16T22:54:08.477Z,99612.03
2023-02-16T22:56:36.076Z,99614.56
2023-02-16T22:59:03.592Z,99605.13
2023-02-16T23:01:31.574Z,99601.31
2023-02-16T23:04:01.485Z,99618.63
2023-02-16T23:06:38.162Z,99618.66
2023-02-16T23:09:15.628Z,99613.84
2023-02-16T23:11:43.012Z,99622.44
2023-02-16T23:14:16.517Z,99627.78
2023-02-16T23:16:54.781Z,99616.91
2023-02-16T23:19:26.849Z,99616.91
2023-02-16T23:21:54.976Z,99621.47
2023-02-16T23:24:24.068Z,99612.19
2023-02-16T23:26:52.692Z,99615.56
2023-02-16T23:29:20.686Z,99616.22
2023-02-16T23:31:49.098Z,99619.06
